Anchor Point, AK (99556)

4:33 PM AKDT on September 17, 2014 (GMT -0800)
KAKHOMER5 | Change Station
CLOSE
Current Station
Personal Weather Station
Location: Homer, AK
Elevation: 1152 ft
Nearby Weather Stations

Elev 1152 ft 59.67 °N, 151.49 °W | Updated 24 seconds ago

Scattered Clouds
Scattered Clouds
55.4 °F
Feels Like 55.4 °F
N
3.0
Wind Variable Wind from SSE
Gusts 13.0 mph

Today
High -- | Low -- °F
--% Chance of Precip.
Yesterday
High -- | Low -- °F
Precip. -- in
7:40 AM 8:21 PM
Waning Crescent, 32% visible
Pressure 29.16 in
Visibility 10.0 miles
Clouds Scattered Clouds 4000 ft
Dew Point 47 °F
Humidity 73%
Rainfall 0.00 in
Snow Depth 2 in , 3 in , 1 in
UV 2 out of 12
Pollen Not available.
Air Quality Not available.
Flu Activity Not available.
METAR PAHO 172353Z 20006KT 10SM SCT040 16/07 A2916 RMK AO2 SLP874 60002 T01610072 10167 20117 56003

More Conditions Fewer Conditions

Pressure 29.16 in
Visibility 10.0 miles
Clouds Scattered Clouds 4000 ft
Dew Point 47 °F
Humidity 73%
Rainfall 0.00 in
Snow Depth 2 in , 3 in , 1 in
UV 2 out of 12
Pollen Not available.
Air Quality Not available.
Flu Activity Not available.
METAR PAHO 172353Z 20006KT 10SM SCT040 16/07 A2916 RMK AO2 SLP874 60002 T01610072 10167 20117 56003

More Conditions Fewer Conditions

10-Day Weather Forecast

Almanac

Astronomy

Sep. 17, 2014 Rise Set
Actual Time 7:40 AM AKDT 8:21 PM AKDT
Civil Twilight 6:58 AM AKDT 9:02 PM AKDT
Nautical Twilight 6:07 AM AKDT 9:53 PM AKDT
Astronomical Twilight 5:10 AM AKDT 10:49 PM AKDT
Moon 12:44 AM AKDT (9/17) 5:38 PM AKDT (9/17)
Length of Visible Light 14h 04m
Length of Day
12h 40m
Tomorrow will be 5m 21s shorter.
Waning Crescent, 32% of the Moon is Illuminated
Today
Waning Crescent
Sep 24
New
Oct 1
First Quarter
Oct 8
Full
Oct 15
Last Quarter

Today's Extremes

State Highs State Lows

Community

WunderPhotos

Upload Photos

1,754,225 photos uploaded!

Nearby

Snow Depth

Station Depth Elevation
Atigun Pass 2 in 4800 ft
MF Bradley River 3 in 2300 ft
Upper Chena 1 in 2850 ft
Coldfoot 0 in 1040 ft
Grandview 5 in 1100 ft

Earthquake Activity

City Distance Mag. Time & Date
No recent earthquake activity has been reported nearby.
Minimum magnitude displayed is 2.5.

Coastal Water Temperatures

Place Temperature
No Stations Reporting

Nearby Weather Stations